Time;durP1;ratioP1;P1;durP2;ratioP2;P2;SDS_P1;SDS_P2;PMS_P1;PMS_P2;Temp;Humidity;BMP_temperature;BMP_pressure;BME280_temperature;BME280_humidity;BME280_pressure;Samples;Min_cycle;Max_cycle;Signal;HPM_P1;HPM_P2
2022/06/02 00:00:08;;;;;;;4.55;2.63;;;;;;;29.67;23.23;98119.97;5038533;28;20038;-80
2022/06/02 00:02:41;;;;;;;3.20;1.35;;;;;;;30.12;22.46;98119.19;5044097;28;20382;-80
2022/06/02 00:05:22;;;;;;;2.53;1.67;;;;;;;30.77;21.62;98116.50;5043076;28;20423;-80
2022/06/02 00:08:00;;;;;;;3.05;1.60;;;;;;;30.66;21.48;98121.91;5045937;28;20025;-80
2022/06/02 00:10:36;;;;;;;4.50;2.05;;;;;;;30.11;22.83;98114.00;5041180;28;20048;-80
2022/06/02 00:13:50;;;;;;;3.13;1.77;;;;;;;30.44;22.16;98114.88;5046234;28;20488;-80
2022/06/02 00:16:29;;;;;;;1.73;1.33;;;;;;;30.88;21.29;98115.19;5031271;28;20048;-80
2022/06/02 00:19:05;;;;;;;6.35;1.75;;;;;;;30.61;21.32;98116.09;5042658;28;20041;-80
2022/06/02 00:21:37;;;;;;;2.97;1.73;;;;;;;30.04;22.19;98112.25;5042554;28;20041;-80
2022/06/02 00:24:29;;;;;;;2.33;1.27;;;;;;;30.77;21.13;98119.34;5036081;28;20450;-80
2022/06/02 00:27:17;;;;;;;1.20;1.05;;;;;;;31.64;20.25;98117.44;5042620;28;20127;-80
2022/06/02 00:30:00;;;;;;;2.00;1.50;;;;;;;31.30;20.67;98116.69;5040501;28;20029;-80
2022/06/02 00:32:42;;;;;;;2.17;1.50;;;;;;;30.86;21.09;98115.66;5040343;28;20543;-80
2022/06/02 00:35:31;;;;;;;1.42;1.00;;;;;;;31.38;20.49;98117.91;5039922;28;20436;-79
2022/06/02 00:38:18;;;;;;;2.10;1.15;;;;;;;31.45;20.67;98116.78;5039879;28;20033;-80
2022/06/02 00:40:45;;;;;;;1.95;1.35;;;;;;;31.64;20.55;98111.78;5038185;28;20037;-80
2022/06/02 00:43:23;;;;;;;2.03;1.17;;;;;;;31.51;20.80;98106.34;5040791;28;20037;-80
2022/06/02 00:46:03;;;;;;;1.33;0.85;;;;;;;31.85;20.11;98117.13;5038926;28;20119;-80
2022/06/02 00:49:09;;;;;;;1.45;0.85;;;;;;;32.40;19.42;98110.91;5039322;28;20488;-80
2022/06/02 00:51:50;;;;;;;2.25;1.23;;;;;;;32.32;20.06;98123.97;5041889;28;20044;-80
2022/06/02 00:57:56;;;;;;;1.65;0.95;;;;;;;32.05;20.84;98120.09;5040067;28;20120;-80
2022/06/02 01:00:33;;;;;;;4.07;1.20;;;;;;;32.05;20.66;98136.38;5037386;28;20121;-80
2022/06/02 01:03:22;;;;;;;6.07;2.28;;;;;;;30.64;22.11;98183.94;5040426;28;20079;-78
2022/06/02 01:06:18;;;;;;;2.40;1.63;;;;;;;29.08;22.68;98179.88;5021714;28;20032;-78
2022/06/02 01:09:25;;;;;;;3.85;2.03;;;;;;;28.94;24.03;98188.91;5037287;28;20045;-78
2022/06/02 01:12:08;;;;;;;4.40;2.50;;;;;;;28.55;24.52;98194.03;5043576;28;20045;-78
2022/06/02 01:14:56;;;;;;;3.88;2.35;;;;;;;27.96;26.24;98199.81;5040345;28;20128;-78
2022/06/02 01:17:58;;;;;;;5.75;2.65;;;;;;;28.97;25.88;98202.09;5036374;28;20056;-79
2022/06/02 01:21:13;;;;;;;6.00;2.78;;;;;;;29.86;24.41;98192.34;5039442;28;20033;-78
2022/06/02 01:23:57;;;;;;;7.97;2.55;;;;;;;29.43;24.37;98181.22;5007018;28;20118;-79
2022/06/02 01:26:51;;;;;;;4.35;2.78;;;;;;;29.64;25.37;98188.81;5039136;28;20041;-78
2022/06/02 01:29:32;;;;;;;3.10;2.50;;;;;;;29.65;24.96;98183.94;5036485;28;20029;-79
2022/06/02 01:32:01;;;;;;;;;;;;;;;29.50;25.15;98186.59;5039834;28;20375;-78
2022/06/02 01:35:09;;;;;;;2.78;2.25;;;;;;;30.20;25.02;98198.94;5038499;28;20381;-78
2022/06/02 01:37:52;;;;;;;2.70;2.22;;;;;;;30.47;25.13;98201.78;5022829;28;20052;-79
2022/06/02 01:40:39;;;;;;;2.70;2.30;;;;;;;30.35;25.33;98212.03;5022437;28;20440;-79
2022/06/02 01:43:30;;;;;;;4.22;2.80;;;;;;;29.75;26.01;98213.84;5039310;28;20146;-79
2022/06/02 01:46:08;;;;;;;3.13;1.73;;;;;;;29.98;25.69;98213.25;5042728;28;20040;-79
2022/06/02 01:49:12;;;;;;;2.35;1.83;;;;;;;30.11;25.84;98216.72;5036945;28;20102;-81
2022/06/02 01:52:12;;;;;;;2.58;1.85;;;;;;;30.09;25.66;98216.41;5009661;28;20063;-81
2022/06/02 01:55:00;;;;;;;3.05;1.50;;;;;;;30.35;25.51;98220.53;5043125;28;20021;-79
2022/06/02 01:57:50;;;;;;;1.98;1.40;;;;;;;30.71;25.27;98228.94;5036176;28;20121;-79
2022/06/02 02:00:23;;;;;;;3.60;1.60;;;;;;;31.11;24.72;98223.03;5043713;28;20033;-79
2022/06/02 02:02:52;;;;;;;2.00;1.25;;;;;;;30.71;24.93;98214.00;5040907;28;20080;-78
2022/06/02 02:05:42;;;;;;;1.58;1.27;;;;;;;31.21;24.73;98215.25;5038232;28;20076;-78
2022/06/02 02:08:45;;;;;;;1.13;1.03;;;;;;;31.37;24.36;98212.03;5039573;28;20037;-78
2022/06/02 02:11:42;;;;;;;1.42;1.15;;;;;;;31.88;23.87;98203.41;5040509;28;20116;-78
2022/06/02 02:14:35;;;;;;;0.82;0.82;;;;;;;31.81;23.94;98201.69;5044586;28;20532;-79
2022/06/02 02:17:10;;;;;;;1.17;0.70;;;;;;;32.35;23.14;98194.81;5042769;28;20376;-78
2022/06/02 02:20:02;;;;;;;3.25;1.27;;;;;;;32.52;22.83;98193.09;5038110;28;20037;-78
2022/06/02 02:22:59;;;;;;;0.82;0.70;;;;;;;32.68;22.58;98195.44;5038728;28;20032;-79
2022/06/02 02:25:46;;;;;;;0.80;0.80;;;;;;;32.91;22.63;98195.84;5039638;28;20044;-79
2022/06/02 02:28:44;;;;;;;0.85;0.70;;;;;;;33.04;22.58;98208.50;5041342;28;20033;-79
2022/06/02 02:31:25;;;;;;;1.70;0.90;;;;;;;33.23;22.68;98218.38;5039991;28;20468;-79
2022/06/02 02:34:01;;;;;;;0.95;0.80;;;;;;;32.88;22.62;98225.25;5040054;28;20033;-79
2022/06/02 02:36:56;;;;;;;1.48;0.80;;;;;;;32.63;23.18;98218.88;5042271;28;20017;-79
2022/06/02 02:39:51;;;;;;;2.95;0.90;;;;;;;32.21;23.68;98214.69;5042351;28;20123;-77
2022/06/02 02:42:48;;;;;;;1.65;0.90;;;;;;;32.05;23.82;98216.69;5038104;28;20033;-78
2022/06/02 02:45:32;;;;;;;2.15;1.20;;;;;;;31.84;24.06;98222.66;5040597;28;20036;-78
2022/06/02 02:48:25;;;;;;;2.50;1.48;;;;;;;31.69;24.54;98228.31;5044007;28;20443;-79
2022/06/02 02:51:26;;;;;;;2.17;1.27;;;;;;;31.70;24.44;98231.91;5042370;28;20068;-78
2022/06/02 02:53:59;;;;;;;;;;;;;;;31.51;25.02;98247.50;5018390;28;20120;-78
2022/06/02 02:56:40;;;;;;;1.58;1.15;;;;;;;31.52;24.77;98238.47;5037506;28;20343;-78
2022/06/02 02:59:30;;;;;;;2.05;1.40;;;;;;;31.21;25.56;98249.31;5035953;28;20436;-78
2022/06/02 03:02:20;;;;;;;2.17;1.37;;;;;;;31.15;25.65;98248.41;5047919;28;20037;-78
2022/06/02 03:04:51;;;;;;;1.02;0.80;;;;;;;31.52;25.44;98241.31;5034818;28;20287;-78
2022/06/02 03:07:19;;;;;;;1.30;1.20;;;;;;;31.55;25.75;98234.69;5041210;28;21391;-79
2022/06/02 03:10:14;;;;;;;1.40;0.88;;;;;;;31.89;25.26;98216.31;5043475;28;20060;-79
2022/06/02 03:12:48;;;;;;;1.20;0.85;;;;;;;32.21;24.77;98217.53;5040746;28;20146;-79
2022/06/02 03:15:35;;;;;;;1.35;0.90;;;;;;;32.20;24.64;98222.44;5040983;28;20115;-78
2022/06/02 03:18:33;;;;;;;0.77;0.75;;;;;;;32.09;24.77;98205.16;5041795;28;20076;-78
2022/06/02 03:21:16;;;;;;;1.13;0.70;;;;;;;32.32;24.28;98198.63;5043235;28;20032;-78
2022/06/02 03:23:51;;;;;;;3.42;0.82;;;;;;;32.35;24.62;98189.13;5045215;28;20504;-78
2022/06/02 03:26:36;;;;;;;3.22;1.48;;;;;;;32.53;24.07;98194.66;5046065;28;20036;-78
2022/06/02 03:29:10;;;;;;;1.30;0.85;;;;;;;32.50;24.62;98197.69;5047529;28;20104;-78
2022/06/02 03:32:26;;;;;;;0.70;0.70;;;;;;;32.18;24.72;98204.28;5045310;28;20036;-78
2022/06/02 03:35:16;;;;;;;1.13;0.70;;;;;;;32.36;24.98;98213.44;5003455;28;20051;-78
2022/06/02 03:37:58;;;;;;;1.30;0.60;;;;;;;32.62;24.20;98216.53;5043291;28;20428;-78
2022/06/02 03:41:00;;;;;;;1.98;0.73;;;;;;;32.92;23.70;98220.16;5037912;28;20036;-79
2022/06/02 03:43:47;;;;;;;0.55;0.55;;;;;;;33.01;23.76;98228.56;5013786;28;20034;-78
2022/06/02 03:46:56;;;;;;;1.17;0.80;;;;;;;32.72;24.34;98246.44;5038877;28;20026;-78
2022/06/02 03:49:30;;;;;;;0.60;0.57;;;;;;;32.98;23.92;98238.88;5042988;28;20041;-78
2022/06/02 03:52:17;;;;;;;1.33;0.70;;;;;;;32.85;23.79;98229.88;5043963;28;20029;-78
2022/06/02 03:55:02;;;;;;;0.50;0.50;;;;;;;32.73;24.23;98222.41;5041869;28;20033;-78
2022/06/02 03:57:34;;;;;;;1.15;0.60;;;;;;;32.69;24.47;98219.78;5041843;28;20507;-78
2022/06/02 04:00:15;;;;;;;0.82;0.82;;;;;;;32.52;24.20;98206.50;5043507;28;20151;-78
2022/06/02 04:02:51;;;;;;;0.50;0.50;;;;;;;32.45;24.39;98204.03;5041417;28;20441;-78
2022/06/02 04:05:42;;;;;;;0.68;0.55;;;;;;;32.88;24.32;98217.50;5042050;28;20112;-78
2022/06/02 04:08:43;;;;;;;1.65;0.68;;;;;;;33.10;23.44;98208.56;5040890;28;20021;-79
2022/06/02 04:14:54;;;;;;;2.03;0.70;;;;;;;32.63;24.31;98209.56;5039992;28;20122;-79
2022/06/02 04:17:58;;;;;;;1.45;0.80;;;;;;;32.94;24.02;98229.75;5039820;28;20163;-78
2022/06/02 04:20:49;;;;;;;0.73;0.60;;;;;;;32.80;24.47;98224.88;5040562;28;20524;-79
2022/06/02 04:23:26;;;;;;;0.60;0.55;;;;;;;32.81;24.22;98229.28;5042258;28;20128;-79
2022/06/02 04:26:02;;;;;;;0.93;0.93;;;;;;;32.98;24.42;98230.34;5041214;28;20035;-79
2022/06/02 04:28:46;;;;;;;0.93;0.70;;;;;;;33.05;24.40;98238.50;5045302;28;20110;-79
2022/06/02 04:31:38;;;;;;;1.20;0.70;;;;;;;33.16;24.31;98241.56;5043102;28;20075;-78
2022/06/02 04:34:25;;;;;;;1.00;0.90;;;;;;;32.85;24.75;98244.09;5036387;28;20032;-79
2022/06/02 04:37:20;;;;;;;0.60;0.60;;;;;;;32.50;24.96;98241.13;5040926;28;20409;-77
2022/06/02 04:40:24;;;;;;;1.55;0.75;;;;;;;32.71;24.96;98250.56;5040308;28;20041;-78
2022/06/02 04:43:17;;;;;;;0.77;0.75;;;;;;;32.67;24.68;98247.13;5044047;28;20490;-77
2022/06/02 04:46:05;;;;;;;0.75;0.75;;;;;;;31.95;25.69;98245.63;5039713;28;20034;-77
2022/06/02 04:49:11;;;;;;;1.08;0.70;;;;;;;30.84;27.52;98239.31;5041283;28;20048;-77
2022/06/02 04:52:20;;;;;;;1.20;0.80;;;;;;;32.04;26.11;98239.91;5020636;28;20043;-77
2022/06/02 04:55:10;;;;;;;0.60;0.60;;;;;;;32.82;25.00;98247.91;5040077;28;20040;-77
2022/06/02 04:57:43;;;;;;;1.75;0.70;;;;;;;33.31;24.23;98242.31;5041962;28;20069;-78
2022/06/02 05:00:28;;;;;;;1.83;0.70;;;;;;;33.35;24.38;98251.41;5038453;28;20040;-79
2022/06/02 05:03:23;;;;;;;1.13;0.73;;;;;;;33.39;24.23;98257.72;5038463;28;20607;-78
2022/06/02 05:06:13;;;;;;;0.75;0.70;;;;;;;33.20;24.26;98253.53;5042557;28;20037;-78
2022/06/02 05:08:58;;;;;;;0.65;0.65;;;;;;;32.66;25.24;98263.41;5037948;28;20041;-78
2022/06/02 05:11:44;;;;;;;0.60;0.60;;;;;;;32.33;25.70;98271.25;5042932;28;20038;-79
2022/06/02 05:14:33;;;;;;;0.70;0.60;;;;;;;32.42;25.52;98274.00;5023596;28;20045;-79
2022/06/02 05:17:23;;;;;;;0.50;0.50;;;;;;;32.89;25.24;98283.69;5041172;28;20029;-78
2022/06/02 05:20:20;;;;;;;0.70;0.70;;;;;;;33.40;24.53;98284.88;5038954;28;20036;-80
2022/06/02 05:23:13;;;;;;;0.63;0.63;;;;;;;33.72;24.24;98282.31;5043135;28;20052;-79
2022/06/02 05:25:48;;;;;;;2.63;0.80;;;;;;;33.20;25.26;98279.13;5045003;28;20045;-79
2022/06/02 05:28:43;;;;;;;0.80;0.80;;;;;;;32.45;25.72;98273.03;5045453;28;20036;-80
2022/06/02 05:31:33;;;;;;;1.05;0.90;;;;;;;32.16;26.75;98275.03;5038610;28;20033;-79
2022/06/02 05:34:30;;;;;;;1.17;1.10;;;;;;;31.78;26.95;98276.50;5042163;28;20090;-79
2022/06/02 05:37:11;;;;;;;0.70;0.70;;;;;;;31.89;27.03;98271.06;5042098;28;20056;-79
2022/06/02 05:39:51;;;;;;;0.98;0.60;;;;;;;31.90;26.82;98269.03;5040481;28;20033;-79
2022/06/02 05:42:43;;;;;;;0.68;0.68;;;;;;;32.42;25.86;98262.63;5041754;28;20034;-79
2022/06/02 05:45:19;;;;;;;0.60;0.60;;;;;;;32.93;25.77;98264.41;5040225;28;20052;-79
2022/06/02 05:47:55;;;;;;;0.70;0.70;;;;;;;33.15;25.30;98264.81;5041105;28;20044;-79
2022/06/02 05:50:48;;;;;;;0.70;0.70;;;;;;;33.12;25.57;98272.25;5043348;28;20033;-79
2022/06/02 05:53:56;;;;;;;0.93;0.80;;;;;;;33.33;25.51;98276.75;5039874;28;20104;-79
2022/06/02 05:56:40;;;;;;;0.82;0.80;;;;;;;33.62;24.80;98278.78;5041153;28;20028;-79
2022/06/02 05:59:27;;;;;;;0.70;0.50;;;;;;;33.80;25.00;98277.75;5040628;28;20439;-79
2022/06/02 06:01:56;;;;;;;0.60;0.60;;;;;;;34.14;24.68;98279.03;5040443;28;20623;-79
2022/06/02 06:04:52;;;;;;;0.77;0.77;;;;;;;33.78;24.89;98280.31;5040487;28;20064;-79
2022/06/02 06:07:48;;;;;;;0.98;0.70;;;;;;;34.17;24.86;98286.59;5039523;28;20037;-79
2022/06/02 06:10:29;;;;;;;1.25;0.60;;;;;;;34.13;24.51;98283.94;5023592;28;20040;-79
2022/06/02 06:13:07;;;;;;;;;;;;;;;34.09;25.12;98289.06;5040860;28;20425;-79
2022/06/02 06:15:50;;;;;;;1.60;0.85;;;;;;;34.27;25.16;98291.63;5041246;28;19916;-79
2022/06/02 06:18:41;;;;;;;1.17;0.82;;;;;;;33.56;25.61;98292.16;5040289;28;20110;-78
2022/06/02 06:21:32;;;;;;;0.80;0.80;;;;;;;33.15;25.97;98296.91;5040253;28;20397;-79
2022/06/02 06:24:23;;;;;;;2.25;0.70;;;;;;;33.36;25.87;98292.84;5038759;28;20208;-78
2022/06/02 06:27:31;;;;;;;0.55;0.55;;;;;;;33.57;25.76;98305.13;5038736;28;20037;-79
2022/06/02 06:30:04;;;;;;;2.22;0.55;;;;;;;33.94;25.30;98291.16;5038676;28;20044;-78
2022/06/02 06:33:15;;;;;;;0.68;0.60;;;;;;;33.73;25.15;98303.78;5041019;28;20033;-78
2022/06/02 06:36:17;;;;;;;1.05;0.50;;;;;;;34.19;25.51;98309.69;5043944;28;20036;-78
2022/06/02 06:39:01;;;;;;;0.50;0.50;;;;;;;34.60;25.36;98314.09;5043477;28;20496;-78
2022/06/02 06:41:39;;;;;;;0.60;0.50;;;;;;;34.83;24.97;98312.25;5045064;28;20504;-79
2022/06/02 06:44:25;;;;;;;0.50;0.50;;;;;;;34.91;24.89;98305.63;5046355;28;20033;-79
2022/06/02 06:47:06;;;;;;;0.70;0.60;;;;;;;35.19;24.79;98314.50;5049760;28;20058;-80
2022/06/02 06:49:51;;;;;;;0.50;0.50;;;;;;;35.56;23.51;98317.41;5049210;28;20053;-80
2022/06/02 06:52:37;;;;;;;0.47;0.40;;;;;;;35.63;23.87;98325.53;5040209;28;20064;-80
2022/06/02 06:55:22;;;;;;;0.70;0.50;;;;;;;35.16;23.81;98324.84;5042997;28;20421;-80
2022/06/02 06:58:10;;;;;;;1.02;0.50;;;;;;;35.15;23.59;98322.50;5042976;28;20033;-80
2022/06/02 07:00:47;;;;;;;2.10;0.55;;;;;;;34.41;24.49;98338.47;5045776;28;20497;-80
2022/06/02 07:03:48;;;;;;;0.50;0.50;;;;;;;34.08;24.88;98330.25;5043275;28;20065;-80
2022/06/02 07:06:41;;;;;;;1.25;0.55;;;;;;;33.47;25.24;98342.72;4949245;28;20054;-80
2022/06/02 07:09:23;;;;;;;0.60;0.50;;;;;;;33.26;26.71;98338.97;5039049;28;20040;-80
2022/06/02 07:15:40;;;;;;;0.40;0.30;;;;;;;34.79;24.39;98349.59;5042782;28;20195;-80
2022/06/02 07:18:22;;;;;;;0.88;0.52;;;;;;;34.70;24.85;98347.66;5042942;28;20025;-80
2022/06/02 07:21:03;;;;;;;0.40;0.40;;;;;;;34.64;24.76;98346.81;5042632;28;20047;-80
2022/06/02 07:23:41;;;;;;;0.40;0.40;;;;;;;35.27;23.98;98347.78;5043180;28;20112;-80
2022/06/02 07:26:26;;;;;;;0.43;0.43;;;;;;;35.91;23.16;98350.16;5023225;28;20034;-80
2022/06/02 07:29:04;;;;;;;0.45;0.43;;;;;;;36.22;23.56;98351.41;5044522;28;20041;-80
2022/06/02 07:31:45;;;;;;;0.75;0.35;;;;;;;36.27;22.34;98350.66;5043350;28;20041;-80
2022/06/02 07:34:41;;;;;;;0.47;0.47;;;;;;;36.47;23.06;98357.03;5044031;28;20082;-80
2022/06/02 07:37:19;;;;;;;0.47;0.47;;;;;;;36.64;22.85;98359.97;5044481;28;20025;-80
2022/06/02 07:39:56;;;;;;;0.38;0.38;;;;;;;36.58;22.30;98364.88;5042566;28;20069;-80
2022/06/02 07:42:35;;;;;;;0.50;0.40;;;;;;;36.23;21.92;98361.53;5043855;28;20078;-80
2022/06/02 07:45:13;;;;;;;0.40;0.40;;;;;;;36.47;23.51;98368.47;5024579;28;20037;-80
2022/06/02 07:48:04;;;;;;;1.25;0.40;;;;;;;36.91;23.54;98376.50;5042945;28;20072;-80
2022/06/02 07:50:36;;;;;;;0.85;0.52;;;;;;;37.37;22.63;98364.63;5004241;28;20030;-80
2022/06/02 07:53:14;;;;;;;1.40;0.50;;;;;;;37.02;21.10;98367.91;5000885;28;20066;-79
2022/06/02 07:55:42;;;;;;;0.80;0.60;;;;;;;36.43;22.34;98379.34;5002720;28;20026;-79
2022/06/02 07:58:29;;;;;;;0.50;0.50;;;;;;;36.37;22.98;98380.59;5004495;28;20065;-79
2022/06/02 08:01:11;;;;;;;0.70;0.60;;;;;;;36.64;22.27;98377.16;5002711;28;20042;-79
2022/06/02 08:04:03;;;;;;;0.73;0.57;;;;;;;35.88;22.11;98393.25;5004922;28;20379;-80
2022/06/02 08:06:49;;;;;;;0.73;0.50;;;;;;;36.21;24.19;98381.28;5005191;28;20048;-79
2022/06/02 08:09:27;;;;;;;0.50;0.50;;;;;;;36.75;21.87;98388.63;5002400;28;20066;-79
2022/06/02 08:11:59;;;;;;;0.50;0.50;;;;;;;36.36;22.71;98391.25;5003032;28;20073;-79
2022/06/02 08:14:51;;;;;;;0.52;0.52;;;;;;;35.77;22.94;98393.97;5001970;28;20186;-79
2022/06/02 08:17:21;;;;;;;0.68;0.60;;;;;;;36.12;23.00;98398.66;5002564;28;20138;-79
2022/06/02 08:20:23;;;;;;;1.00;0.47;;;;;;;36.79;22.22;98409.19;5008511;28;20470;-79
2022/06/02 08:23:11;;;;;;;0.40;0.40;;;;;;;36.57;22.05;98412.72;5005090;28;20096;-79
2022/06/02 08:25:56;;;;;;;0.50;0.50;;;;;;;34.38;24.41;98407.91;5004127;28;20080;-79
2022/06/02 08:28:26;;;;;;;0.80;0.50;;;;;;;34.63;23.59;98418.66;5005100;28;20049;-79
2022/06/02 08:31:07;;;;;;;1.33;0.60;;;;;;;33.86;25.67;98416.16;5004392;28;20102;-80
2022/06/02 08:33:55;;;;;;;0.70;0.70;;;;;;;33.55;25.71;98423.63;5001942;28;20132;-79
2022/06/02 08:36:54;;;;;;;0.77;0.77;;;;;;;34.06;24.35;98426.84;5003268;28;20536;-79
2022/06/02 08:39:48;;;;;;;2.15;0.70;;;;;;;34.88;23.68;98429.34;5002746;28;20064;-80
2022/06/02 08:42:48;;;;;;;0.70;0.45;;;;;;;35.89;22.61;98443.44;5005321;28;20068;-80
2022/06/02 08:45:51;;;;;;;0.95;0.70;;;;;;;35.70;23.13;98427.94;5000702;28;20065;-79
2022/06/02 08:48:48;;;;;;;0.40;0.40;;;;;;;36.61;21.91;98430.47;5013738;28;20037;-80
2022/06/02 08:51:32;;;;;;;0.68;0.68;;;;;;;36.97;20.75;98425.94;5041952;28;20038;-80
2022/06/02 08:54:04;;;;;;;0.50;0.50;;;;;;;35.95;22.84;98427.88;5042736;28;20041;-80
2022/06/02 08:56:51;;;;;;;0.60;0.60;;;;;;;35.16;24.04;98436.19;5041872;28;20025;-79
2022/06/02 08:59:45;;;;;;;0.80;0.80;;;;;;;34.95;23.20;98443.16;5044882;28;20037;-79
2022/06/02 09:02:23;;;;;;;0.70;0.70;;;;;;;34.51;23.78;98443.34;5022116;28;20033;-80
2022/06/02 09:05:34;;;;;;;1.85;0.85;;;;;;;34.59;23.04;98441.66;5038857;28;20040;-79
2022/06/02 09:08:31;;;;;;;1.02;0.93;;;;;;;34.34;23.31;98439.47;5041946;28;20068;-80
2022/06/02 09:11:18;;;;;;;0.93;0.70;;;;;;;34.61;23.23;98441.94;5034018;28;20157;-79
2022/06/02 09:14:13;;;;;;;2.42;0.60;;;;;;;34.56;22.87;98442.69;5046170;28;20043;-79
2022/06/02 09:17:22;;;;;;;1.42;0.73;;;;;;;34.50;23.33;98447.47;5042282;28;20453;-80
2022/06/02 09:20:10;;;;;;;1.30;0.60;;;;;;;34.98;22.40;98447.09;5041913;28;20481;-79
2022/06/02 09:23:02;;;;;;;0.80;0.80;;;;;;;35.37;21.97;98446.28;5043931;28;20029;-79
2022/06/02 09:25:59;;;;;;;0.70;0.40;;;;;;;35.77;22.38;98442.53;5029616;28;20068;-80
2022/06/02 09:28:38;;;;;;;0.60;0.60;;;;;;;35.23;22.77;98444.31;5040674;28;20131;-79
2022/06/02 09:31:41;;;;;;;1.20;0.75;;;;;;;35.46;22.51;98445.31;5042158;28;20032;-80
2022/06/02 09:34:33;;;;;;;0.75;0.70;;;;;;;36.00;22.33;98449.25;5037801;28;20074;-79
2022/06/02 09:37:11;;;;;;;0.80;0.80;;;;;;;35.33;22.21;98450.66;5039921;28;20037;-79
2022/06/02 09:39:47;;;;;;;1.20;0.63;;;;;;;35.16;22.72;98438.25;5040606;28;20051;-80
2022/06/02 09:42:30;;;;;;;0.70;0.70;;;;;;;35.09;22.16;98435.84;5031107;28;20080;-80
2022/06/02 09:45:09;;;;;;;3.63;0.90;;;;;;;34.87;22.08;98447.72;5036706;28;20302;-80
2022/06/02 09:48:13;;;;;;;1.20;0.57;;;;;;;35.01;22.31;98434.69;5040407;28;20021;-79
2022/06/02 09:51:02;;;;;;;0.70;0.70;;;;;;;35.77;22.67;98436.84;5041135;28;20112;-80
2022/06/02 09:53:51;;;;;;;0.73;0.60;;;;;;;36.77;22.04;98446.13;5041975;28;20067;-80
2022/06/02 09:56:20;;;;;;;6.10;1.27;;;;;;;36.21;20.79;98450.72;5041499;28;20029;-80
2022/06/02 09:58:54;;;;;;;1.05;0.80;;;;;;;35.48;22.39;98451.31;5040024;28;20103;-79
2022/06/02 10:01:34;;;;;;;2.55;1.02;;;;;;;35.15;22.97;98451.75;5039485;28;20083;-79
2022/06/02 10:04:15;;;;;;;0.70;0.70;;;;;;;35.17;23.27;98454.09;5042811;28;20084;-79
2022/06/02 10:06:58;;;;;;;1.02;0.98;;;;;;;34.66;23.54;98461.22;5043508;28;20040;-79
2022/06/02 10:09:50;;;;;;;3.97;0.98;;;;;;;35.03;23.42;98461.44;5043602;28;20034;-80
2022/06/02 10:15:38;;;;;;;0.80;0.80;;;;;;;35.89;20.56;98457.72;5044389;28;20047;-80
2022/06/02 10:18:26;;;;;;;1.10;0.75;;;;;;;35.70;21.07;98457.28;5043883;28;20037;-80
2022/06/02 10:21:15;;;;;;;1.13;0.73;;;;;;;36.17;20.93;98466.53;5045586;28;20072;-79
2022/06/02 10:24:00;;;;;;;0.88;0.70;;;;;;;36.05;21.36;98466.47;5028180;28;20057;-80
2022/06/02 10:26:56;;;;;;;3.40;1.20;;;;;;;35.71;21.31;98461.69;5049359;28;20036;-79
2022/06/02 10:30:03;;;;;;;0.68;0.68;;;;;;;36.52;21.71;98461.34;5043549;28;20048;-80
2022/06/02 10:33:07;;;;;;;1.10;1.00;;;;;;;36.58;21.55;98460.09;5046035;28;20079;-79
2022/06/02 10:36:10;;;;;;;0.80;0.80;;;;;;;37.58;20.68;98466.25;5045039;28;20117;-80
2022/06/02 10:39:08;;;;;;;1.20;1.10;;;;;;;36.92;19.53;98466.03;5046195;28;20036;-79
2022/06/02 10:41:52;;;;;;;1.58;1.45;;;;;;;36.42;21.01;98465.69;5009794;28;20049;-80
2022/06/02 10:44:38;;;;;;;1.67;1.20;;;;;;;36.08;21.30;98471.16;5042334;28;20396;-80
2022/06/02 10:47:40;;;;;;;1.50;1.20;;;;;;;35.96;21.30;98462.97;5043673;28;20502;-79
2022/06/02 10:50:25;;;;;;;2.33;1.33;;;;;;;36.33;20.91;98466.66;5041818;28;20056;-80
2022/06/02 10:53:26;;;;;;;1.50;1.40;;;;;;;34.98;22.89;98469.94;5043424;28;20044;-80
2022/06/02 10:56:10;;;;;;;5.78;1.90;;;;;;;36.22;20.13;98469.47;5044442;28;20040;-80
2022/06/02 10:58:50;;;;;;;1.85;1.50;;;;;;;36.35;20.34;98457.56;5043095;28;20039;-80
2022/06/02 11:01:51;;;;;;;2.67;1.67;;;;;;;36.71;21.28;98457.56;5045145;28;20037;-80
2022/06/02 11:04:36;;;;;;;1.65;1.55;;;;;;;35.79;20.76;98462.03;5044799;28;20079;-79
2022/06/02 11:07:41;;;;;;;2.35;2.08;;;;;;;34.47;22.46;98471.28;5042734;28;20036;-80
2022/06/02 11:10:29;;;;;;;3.15;1.50;;;;;;;35.57;20.78;98454.03;5044657;28;20075;-80
2022/06/02 11:13:21;;;;;;;1.40;1.30;;;;;;;35.93;21.43;98469.69;5042866;28;20454;-80
2022/06/02 11:16:24;;;;;;;5.30;1.63;;;;;;;36.01;19.87;98477.31;5044810;28;20041;-80
2022/06/02 11:19:14;;;;;;;1.90;1.65;;;;;;;35.39;21.34;98468.63;5043924;28;20570;-80
2022/06/02 11:22:09;;;;;;;8.60;1.75;;;;;;;35.06;20.90;98471.09;5042953;28;20108;-80
2022/06/02 11:24:56;;;;;;;1.63;1.33;;;;;;;34.70;21.46;98480.97;5043942;28;20048;-80
2022/06/02 11:27:47;;;;;;;1.20;1.10;;;;;;;35.19;21.78;98482.94;5042614;28;20033;-80
2022/06/02 11:30:44;;;;;;;1.88;1.42;;;;;;;36.05;20.18;98471.41;5047518;28;20037;-80
2022/06/02 11:33:53;;;;;;;1.40;1.30;;;;;;;36.34;19.70;98473.94;5043149;28;20037;-81
2022/06/02 11:36:37;;;;;;;1.40;1.30;;;;;;;35.73;19.79;98470.53;5032185;28;20052;-80
2022/06/02 11:39:27;;;;;;;1.88;1.40;;;;;;;35.51;19.16;98476.06;5046390;28;20033;-80
2022/06/02 11:42:05;;;;;;;2.10;1.48;;;;;;;35.89;20.15;98477.72;5045012;28;20041;-79
2022/06/02 11:45:07;;;;;;;1.67;1.58;;;;;;;36.00;20.10;98472.13;5044625;28;20091;-80
2022/06/02 11:47:56;;;;;;;4.25;1.40;;;;;;;36.58;18.10;98470.75;5043852;28;20036;-80
2022/06/02 11:50:34;;;;;;;2.10;1.40;;;;;;;36.96;18.66;98481.66;5042598;28;20451;-80
2022/06/02 11:53:17;;;;;;;1.42;1.00;;;;;;;36.85;18.80;98472.19;5042244;28;20088;-80
2022/06/02 11:55:54;;;;;;;2.05;1.20;;;;;;;37.41;19.08;98490.44;5042640;28;20496;-80
2022/06/02 11:58:39;;;;;;;1.77;1.55;;;;;;;37.16;19.25;98487.19;5043933;28;20033;-80
2022/06/02 12:01:33;;;;;;;1.30;1.20;;;;;;;37.31;17.19;98487.00;5043879;28;20062;-80
2022/06/02 12:04:25;;;;;;;1.58;1.20;;;;;;;37.06;19.42;98476.50;5042579;28;20033;-80
2022/06/02 12:06:54;;;;;;;1.20;1.10;;;;;;;36.53;20.32;98485.78;5042527;28;20037;-80
2022/06/02 12:09:41;;;;;;;1.42;1.33;;;;;;;35.09;20.92;98476.59;5044918;28;20395;-81
2022/06/02 12:12:30;;;;;;;2.90;2.00;;;;;;;34.87;20.86;98498.34;5041113;28;20032;-80
2022/06/02 12:15:21;;;;;;;2.90;1.50;;;;;;;35.04;20.08;98507.91;5042025;28;20404;-80
2022/06/02 12:18:06;;;;;;;;;;;;;;;36.07;19.45;98505.97;5041693;28;20642;-80
2022/06/02 12:21:10;;;;;;;3.38;1.10;;;;;;;36.84;19.51;98508.63;5039813;28;19916;-80
2022/06/02 12:23:54;;;;;;;1.20;1.10;;;;;;;37.67;17.96;98508.22;5041391;28;20041;-80
2022/06/02 12:26:51;;;;;;;1.80;0.90;;;;;;;37.61;18.07;98510.28;5043772;28;20029;-80
2022/06/02 12:29:29;;;;;;;1.30;1.20;;;;;;;37.24;17.71;98511.19;5043190;28;20039;-80
2022/06/02 12:32:05;;;;;;;2.58;0.93;;;;;;;35.79;17.81;98502.84;5044581;28;20036;-80
2022/06/02 12:35:19;;;;;;;0.90;0.80;;;;;;;35.47;19.17;98514.66;5039742;28;20043;-80
2022/06/02 12:37:57;;;;;;;1.23;0.90;;;;;;;35.63;19.30;98508.38;5043512;28;20036;-80
2022/06/02 12:40:32;;;;;;;2.90;1.00;;;;;;;35.05;19.49;98518.06;5040252;28;20026;-79
2022/06/02 12:43:13;;;;;;;1.15;1.00;;;;;;;34.74;19.60;98513.72;5042913;28;20045;-80
2022/06/02 12:45:46;;;;;;;0.93;0.80;;;;;;;35.85;18.99;98522.91;5041704;28;20029;-80
2022/06/02 12:48:43;;;;;;;1.95;0.90;;;;;;;36.64;18.40;98523.09;5042656;28;20094;-80
2022/06/02 12:51:31;;;;;;;1.35;0.80;;;;;;;36.93;18.29;98510.50;5040382;28;20401;-80
2022/06/02 12:54:06;;;;;;;0.95;0.65;;;;;;;37.01;18.95;98518.13;5038610;28;20033;-80
2022/06/02 12:57:00;;;;;;;4.38;1.00;;;;;;;37.22;17.29;98522.38;5041030;28;20064;-79
2022/06/02 12:59:56;;;;;;;0.82;0.70;;;;;;;36.84;17.98;98517.22;5041746;28;20039;-80
2022/06/02 13:02:37;;;;;;;0.60;0.60;;;;;;;36.34;18.56;98513.97;5043432;28;20547;-83
2022/06/02 13:05:23;;;;;;;0.85;0.70;;;;;;;36.44;18.51;98520.28;5041058;28;20037;-84
2022/06/02 13:08:11;;;;;;;0.50;0.50;;;;;;;36.63;18.41;98519.44;5040150;28;20095;-83
2022/06/02 13:10:47;;;;;;;0.50;0.50;;;;;;;37.19;18.62;98516.88;5041130;28;20514;-84
2022/06/02 13:13:35;;;;;;;0.70;0.52;;;;;;;36.80;18.08;98515.88;5030353;28;20064;-83
2022/06/02 13:16:13;;;;;;;0.50;0.50;;;;;;;36.99;17.38;98511.34;5042974;28;20041;-84
2022/06/02 13:19:10;;;;;;;1.10;0.60;;;;;;;36.75;17.59;98505.97;5038876;28;20060;-84
2022/06/02 13:21:59;;;;;;;0.50;0.50;;;;;;;36.93;18.31;98510.50;5037925;28;20565;-84